sensor_id;sensor_type;location;lat;lon;timestamp;P1;durP1;ratioP1;P2;durP2;ratioP2
78296;SDS011;67555;47.660;19.622;2023-08-30T00:00:54;0.00;;;0.00;;
78296;SDS011;67555;47.660;19.622;2023-08-30T00:03:20;0.22;;;0.22;;
78296;SDS011;67555;47.660;19.622;2023-08-30T00:05:46;0.00;;;0.00;;
78296;SDS011;67555;47.660;19.622;2023-08-30T00:08:12;0.00;;;0.00;;
78296;SDS011;67555;47.660;19.622;2023-08-30T00:10:44;0.00;;;0.00;;
78296;SDS011;67555;47.660;19.622;2023-08-30T00:13:10;0.00;;;0.00;;
78296;SDS011;67555;47.660;19.622;2023-08-30T00:15:36;0.45;;;0.45;;
78296;SDS011;67555;47.660;19.622;2023-08-30T00:18:02;0.47;;;0.47;;
78296;SDS011;67555;47.660;19.622;2023-08-30T00:20:29;0.00;;;0.00;;
78296;SDS011;67555;47.660;19.622;2023-08-30T00:22:54;0.10;;;0.10;;
78296;SDS011;67555;47.660;19.622;2023-08-30T00:25:20;1.35;;;0.98;;
78296;SDS011;67555;47.660;19.622;2023-08-30T00:27:46;0.08;;;0.08;;
78296;SDS011;67555;47.660;19.622;2023-08-30T00:30:11;0.00;;;0.00;;
78296;SDS011;67555;47.660;19.622;2023-08-30T00:32:37;0.00;;;0.00;;
78296;SDS011;67555;47.660;19.622;2023-08-30T00:35:03;0.30;;;0.30;;
78296;SDS011;67555;47.660;19.622;2023-08-30T00:37:29;0.10;;;0.10;;
78296;SDS011;67555;47.660;19.622;2023-08-30T00:39:55;1.42;;;1.33;;
78296;SDS011;67555;47.660;19.622;2023-08-30T00:42:21;0.00;;;0.00;;
78296;SDS011;67555;47.660;19.622;2023-08-30T00:44:46;0.38;;;0.38;;
78296;SDS011;67555;47.660;19.622;2023-08-30T00:47:12;0.10;;;0.10;;
78296;SDS011;67555;47.660;19.622;2023-08-30T00:49:38;0.28;;;0.28;;
78296;SDS011;67555;47.660;19.622;2023-08-30T00:52:06;0.00;;;0.00;;
78296;SDS011;67555;47.660;19.622;2023-08-30T00:54:34;0.20;;;0.20;;
78296;SDS011;67555;47.660;19.622;2023-08-30T00:57:00;1.20;;;0.65;;
78296;SDS011;67555;47.660;19.622;2023-08-30T00:59:27;0.30;;;0.30;;
78296;SDS011;67555;47.660;19.622;2023-08-30T01:01:55;0.00;;;0.00;;
78296;SDS011;67555;47.660;19.622;2023-08-30T01:04:21;0.63;;;0.63;;
78296;SDS011;67555;47.660;19.622;2023-08-30T01:06:48;0.00;;;0.00;;
78296;SDS011;67555;47.660;19.622;2023-08-30T01:09:14;0.10;;;0.10;;
78296;SDS011;67555;47.660;19.622;2023-08-30T01:14:33;0.60;;;0.38;;
78296;SDS011;67555;47.660;19.622;2023-08-30T01:17:06;0.20;;;0.20;;
78296;SDS011;67555;47.660;19.622;2023-08-30T01:19:55;0.10;;;0.10;;
78296;SDS011;67555;47.660;19.622;2023-08-30T01:27:47;0.00;;;0.00;;
78296;SDS011;67555;47.660;19.622;2023-08-30T01:30:14;0.00;;;0.00;;
78296;SDS011;67555;47.660;19.622;2023-08-30T01:32:42;0.00;;;0.00;;
78296;SDS011;67555;47.660;19.622;2023-08-30T01:35:09;0.00;;;0.00;;
78296;SDS011;67555;47.660;19.622;2023-08-30T01:37:35;0.00;;;0.00;;
78296;SDS011;67555;47.660;19.622;2023-08-30T01:40:02;0.00;;;0.00;;
78296;SDS011;67555;47.660;19.622;2023-08-30T01:42:32;0.00;;;0.00;;
78296;SDS011;67555;47.660;19.622;2023-08-30T01:44:59;0.00;;;0.00;;
78296;SDS011;67555;47.660;19.622;2023-08-30T01:47:28;0.00;;;0.00;;
78296;SDS011;67555;47.660;19.622;2023-08-30T01:49:55;0.00;;;0.00;;
78296;SDS011;67555;47.660;19.622;2023-08-30T01:52:23;0.00;;;0.00;;
78296;SDS011;67555;47.660;19.622;2023-08-30T01:54:50;0.45;;;0.45;;
78296;SDS011;67555;47.660;19.622;2023-08-30T01:57:17;0.00;;;0.00;;
78296;SDS011;67555;47.660;19.622;2023-08-30T01:59:43;0.10;;;0.10;;
78296;SDS011;67555;47.660;19.622;2023-08-30T02:02:08;0.00;;;0.00;;
78296;SDS011;67555;47.660;19.622;2023-08-30T02:04:34;0.00;;;0.00;;
78296;SDS011;67555;47.660;19.622;2023-08-30T02:07:02;0.00;;;0.00;;
78296;SDS011;67555;47.660;19.622;2023-08-30T02:12:14;0.00;;;0.00;;
78296;SDS011;67555;47.660;19.622;2023-08-30T02:14:43;0.05;;;0.05;;
78296;SDS011;67555;47.660;19.622;2023-08-30T02:17:13;0.00;;;0.00;;
78296;SDS011;67555;47.660;19.622;2023-08-30T02:19:40;0.00;;;0.00;;
78296;SDS011;67555;47.660;19.622;2023-08-30T02:22:07;0.00;;;0.00;;
78296;SDS011;67555;47.660;19.622;2023-08-30T02:24:33;0.00;;;0.00;;
78296;SDS011;67555;47.660;19.622;2023-08-30T02:26:59;0.20;;;0.20;;
78296;SDS011;67555;47.660;19.622;2023-08-30T02:29:25;0.20;;;0.15;;
78296;SDS011;67555;47.660;19.622;2023-08-30T02:31:51;0.25;;;0.25;;
78296;SDS011;67555;47.660;19.622;2023-08-30T02:34:16;0.00;;;0.00;;
78296;SDS011;67555;47.660;19.622;2023-08-30T02:36:42;0.00;;;0.00;;
78296;SDS011;67555;47.660;19.622;2023-08-30T02:39:08;0.00;;;0.00;;
78296;SDS011;67555;47.660;19.622;2023-08-30T02:41:33;0.88;;;0.88;;
78296;SDS011;67555;47.660;19.622;2023-08-30T02:43:59;0.10;;;0.10;;
78296;SDS011;67555;47.660;19.622;2023-08-30T02:46:25;0.00;;;0.00;;
78296;SDS011;67555;47.660;19.622;2023-08-30T02:48:51;0.00;;;0.00;;
78296;SDS011;67555;47.660;19.622;2023-08-30T02:51:17;0.00;;;0.00;;
78296;SDS011;67555;47.660;19.622;2023-08-30T02:53:42;0.85;;;0.65;;
78296;SDS011;67555;47.660;19.622;2023-08-30T02:56:08;0.00;;;0.00;;
78296;SDS011;67555;47.660;19.622;2023-08-30T02:58:36;0.00;;;0.00;;
78296;SDS011;67555;47.660;19.622;2023-08-30T03:01:02;0.65;;;0.65;;
78296;SDS011;67555;47.660;19.622;2023-08-30T03:03:28;0.85;;;0.57;;
78296;SDS011;67555;47.660;19.622;2023-08-30T03:05:54;1.55;;;0.60;;
78296;SDS011;67555;47.660;19.622;2023-08-30T03:08:19;0.05;;;0.05;;
78296;SDS011;67555;47.660;19.622;2023-08-30T03:10:45;1.58;;;1.17;;
78296;SDS011;67555;47.660;19.622;2023-08-30T03:13:11;0.00;;;0.00;;
78296;SDS011;67555;47.660;19.622;2023-08-30T03:15:37;0.00;;;0.00;;
78296;SDS011;67555;47.660;19.622;2023-08-30T03:18:03;0.00;;;0.00;;
78296;SDS011;67555;47.660;19.622;2023-08-30T03:20:29;0.28;;;0.28;;
78296;SDS011;67555;47.660;19.622;2023-08-30T03:22:57;0.00;;;0.00;;
78296;SDS011;67555;47.660;19.622;2023-08-30T03:25:23;0.57;;;0.45;;
78296;SDS011;67555;47.660;19.622;2023-08-30T03:27:50;0.10;;;0.10;;
78296;SDS011;67555;47.660;19.622;2023-08-30T03:30:16;0.00;;;0.00;;
78296;SDS011;67555;47.660;19.622;2023-08-30T03:32:41;0.00;;;0.00;;
78296;SDS011;67555;47.660;19.622;2023-08-30T03:35:07;0.35;;;0.32;;
78296;SDS011;67555;47.660;19.622;2023-08-30T03:37:33;0.03;;;0.03;;
78296;SDS011;67555;47.660;19.622;2023-08-30T03:39:59;0.90;;;0.85;;
78296;SDS011;67555;47.660;19.622;2023-08-30T03:42:25;0.80;;;0.80;;
78296;SDS011;67555;47.660;19.622;2023-08-30T03:44:50;0.65;;;0.65;;
78296;SDS011;67555;47.660;19.622;2023-08-30T03:47:16;0.57;;;0.22;;
78296;SDS011;67555;47.660;19.622;2023-08-30T03:49:43;0.20;;;0.20;;
78296;SDS011;67555;47.660;19.622;2023-08-30T03:52:09;0.13;;;0.13;;
78296;SDS011;67555;47.660;19.622;2023-08-30T03:54:34;0.10;;;0.10;;
78296;SDS011;67555;47.660;19.622;2023-08-30T03:57:01;0.00;;;0.00;;
78296;SDS011;67555;47.660;19.622;2023-08-30T03:59:27;0.30;;;0.30;;
78296;SDS011;67555;47.660;19.622;2023-08-30T04:01:53;1.23;;;1.02;;
78296;SDS011;67555;47.660;19.622;2023-08-30T04:04:19;0.10;;;0.10;;
78296;SDS011;67555;47.660;19.622;2023-08-30T04:06:45;0.65;;;0.65;;
78296;SDS011;67555;47.660;19.622;2023-08-30T04:09:10;0.30;;;0.30;;
78296;SDS011;67555;47.660;19.622;2023-08-30T04:11:36;0.20;;;0.20;;
78296;SDS011;67555;47.660;19.622;2023-08-30T04:14:02;0.10;;;0.10;;
78296;SDS011;67555;47.660;19.622;2023-08-30T04:16:28;0.30;;;0.30;;
78296;SDS011;67555;47.660;19.622;2023-08-30T04:18:54;0.88;;;0.88;;
78296;SDS011;67555;47.660;19.622;2023-08-30T04:21:20;0.03;;;0.03;;
78296;SDS011;67555;47.660;19.622;2023-08-30T04:23:45;0.05;;;0.05;;
78296;SDS011;67555;47.660;19.622;2023-08-30T04:26:11;0.00;;;0.00;;
78296;SDS011;67555;47.660;19.622;2023-08-30T04:28:37;0.25;;;0.25;;
78296;SDS011;67555;47.660;19.622;2023-08-30T04:31:03;0.00;;;0.00;;
78296;SDS011;67555;47.660;19.622;2023-08-30T04:33:28;0.00;;;0.00;;
78296;SDS011;67555;47.660;19.622;2023-08-30T04:35:54;0.00;;;0.00;;
78296;SDS011;67555;47.660;19.622;2023-08-30T04:38:21;0.55;;;0.55;;
78296;SDS011;67555;47.660;19.622;2023-08-30T04:40:47;0.10;;;0.10;;
78296;SDS011;67555;47.660;19.622;2023-08-30T04:43:13;0.38;;;0.38;;
78296;SDS011;67555;47.660;19.622;2023-08-30T04:45:39;0.00;;;0.00;;
78296;SDS011;67555;47.660;19.622;2023-08-30T04:48:05;0.00;;;0.00;;
78296;SDS011;67555;47.660;19.622;2023-08-30T04:50:31;0.10;;;0.10;;
78296;SDS011;67555;47.660;19.622;2023-08-30T04:52:57;0.52;;;0.52;;
78296;SDS011;67555;47.660;19.622;2023-08-30T04:55:28;0.10;;;0.10;;
78296;SDS011;67555;47.660;19.622;2023-08-30T04:57:55;0.32;;;0.32;;
78296;SDS011;67555;47.660;19.622;2023-08-30T05:00:21;0.20;;;0.20;;
78296;SDS011;67555;47.660;19.622;2023-08-30T05:02:46;2.15;;;1.95;;
78296;SDS011;67555;47.660;19.622;2023-08-30T05:05:13;0.50;;;0.50;;
78296;SDS011;67555;47.660;19.622;2023-08-30T05:07:39;0.30;;;0.30;;
78296;SDS011;67555;47.660;19.622;2023-08-30T05:10:05;0.55;;;0.55;;
78296;SDS011;67555;47.660;19.622;2023-08-30T05:12:35;0.35;;;0.35;;
78296;SDS011;67555;47.660;19.622;2023-08-30T05:15:00;0.00;;;0.00;;
78296;SDS011;67555;47.660;19.622;2023-08-30T05:17:26;2.03;;;1.85;;
78296;SDS011;67555;47.660;19.622;2023-08-30T05:19:53;0.08;;;0.08;;
78296;SDS011;67555;47.660;19.622;2023-08-30T05:22:19;1.55;;;1.45;;
78296;SDS011;67555;47.660;19.622;2023-08-30T05:24:45;0.08;;;0.08;;
78296;SDS011;67555;47.660;19.622;2023-08-30T05:27:11;0.00;;;0.00;;
78296;SDS011;67555;47.660;19.622;2023-08-30T05:29:39;0.20;;;0.20;;
78296;SDS011;67555;47.660;19.622;2023-08-30T05:32:05;0.57;;;0.57;;
78296;SDS011;67555;47.660;19.622;2023-08-30T05:34:31;0.15;;;0.15;;
78296;SDS011;67555;47.660;19.622;2023-08-30T05:36:57;0.43;;;0.43;;
78296;SDS011;67555;47.660;19.622;2023-08-30T05:39:22;0.30;;;0.30;;
78296;SDS011;67555;47.660;19.622;2023-08-30T05:41:48;0.00;;;0.00;;
78296;SDS011;67555;47.660;19.622;2023-08-30T05:44:14;0.60;;;0.60;;
78296;SDS011;67555;47.660;19.622;2023-08-30T05:46:39;0.55;;;0.55;;
78296;SDS011;67555;47.660;19.622;2023-08-30T05:49:05;0.05;;;0.05;;
78296;SDS011;67555;47.660;19.622;2023-08-30T05:51:31;0.15;;;0.15;;
78296;SDS011;67555;47.660;19.622;2023-08-30T05:53:56;0.47;;;0.47;;
78296;SDS011;67555;47.660;19.622;2023-08-30T05:56:22;0.73;;;0.73;;
78296;SDS011;67555;47.660;19.622;2023-08-30T05:58:48;0.15;;;0.15;;
78296;SDS011;67555;47.660;19.622;2023-08-30T06:01:17;0.45;;;0.45;;
78296;SDS011;67555;47.660;19.622;2023-08-30T06:03:44;0.20;;;0.20;;
78296;SDS011;67555;47.660;19.622;2023-08-30T06:06:11;0.00;;;0.00;;
78296;SDS011;67555;47.660;19.622;2023-08-30T06:08:36;0.03;;;0.03;;
78296;SDS011;67555;47.660;19.622;2023-08-30T06:11:02;0.17;;;0.17;;
78296;SDS011;67555;47.660;19.622;2023-08-30T06:13:28;0.90;;;0.90;;
78296;SDS011;67555;47.660;19.622;2023-08-30T06:15:53;0.10;;;0.10;;
78296;SDS011;67555;47.660;19.622;2023-08-30T06:18:19;0.63;;;0.63;;
78296;SDS011;67555;47.660;19.622;2023-08-30T06:20:45;0.22;;;0.22;;
78296;SDS011;67555;47.660;19.622;2023-08-30T06:23:11;0.30;;;0.30;;
78296;SDS011;67555;47.660;19.622;2023-08-30T06:25:38;0.88;;;0.88;;
78296;SDS011;67555;47.660;19.622;2023-08-30T06:28:04;0.35;;;0.35;;
78296;SDS011;67555;47.660;19.622;2023-08-30T06:30:30;0.85;;;0.70;;
78296;SDS011;67555;47.660;19.622;2023-08-30T06:32:56;2.50;;;2.22;;
78296;SDS011;67555;47.660;19.622;2023-08-30T06:35:22;1.08;;;1.08;;
78296;SDS011;67555;47.660;19.622;2023-08-30T06:37:48;0.35;;;0.32;;
78296;SDS011;67555;47.660;19.622;2023-08-30T06:40:14;0.20;;;0.20;;
78296;SDS011;67555;47.660;19.622;2023-08-30T06:42:40;0.10;;;0.10;;
78296;SDS011;67555;47.660;19.622;2023-08-30T06:45:06;0.38;;;0.38;;
78296;SDS011;67555;47.660;19.622;2023-08-30T06:47:32;0.15;;;0.15;;
78296;SDS011;67555;47.660;19.622;2023-08-30T06:49:58;0.28;;;0.28;;
78296;SDS011;67555;47.660;19.622;2023-08-30T06:52:25;0.00;;;0.00;;
78296;SDS011;67555;47.660;19.622;2023-08-30T06:54:51;0.90;;;0.90;;
78296;SDS011;67555;47.660;19.622;2023-08-30T06:57:16;0.57;;;0.40;;
78296;SDS011;67555;47.660;19.622;2023-08-30T06:59:42;0.22;;;0.22;;
78296;SDS011;67555;47.660;19.622;2023-08-30T07:02:08;2.47;;;0.90;;
78296;SDS011;67555;47.660;19.622;2023-08-30T07:04:34;0.52;;;0.52;;
78296;SDS011;67555;47.660;19.622;2023-08-30T07:06:59;0.15;;;0.15;;
78296;SDS011;67555;47.660;19.622;2023-08-30T07:09:25;0.22;;;0.22;;
78296;SDS011;67555;47.660;19.622;2023-08-30T07:14:22;0.30;;;0.30;;
78296;SDS011;67555;47.660;19.622;2023-08-30T07:16:48;0.00;;;0.00;;
78296;SDS011;67555;47.660;19.622;2023-08-30T07:21:42;0.08;;;0.08;;
78296;SDS011;67555;47.660;19.622;2023-08-30T07:24:08;0.10;;;0.10;;
78296;SDS011;67555;47.660;19.622;2023-08-30T07:26:34;0.22;;;0.22;;
78296;SDS011;67555;47.660;19.622;2023-08-30T07:29:00;1.45;;;0.93;;
78296;SDS011;67555;47.660;19.622;2023-08-30T07:31:26;0.00;;;0.00;;
78296;SDS011;67555;47.660;19.622;2023-08-30T07:33:51;0.10;;;0.10;;
78296;SDS011;67555;47.660;19.622;2023-08-30T07:36:17;0.43;;;0.43;;
78296;SDS011;67555;47.660;19.622;2023-08-30T07:38:43;1.75;;;1.65;;
78296;SDS011;67555;47.660;19.622;2023-08-30T07:41:09;0.32;;;0.32;;
78296;SDS011;67555;47.660;19.622;2023-08-30T07:43:35;0.10;;;0.10;;
78296;SDS011;67555;47.660;19.622;2023-08-30T07:46:00;0.15;;;0.05;;
78296;SDS011;67555;47.660;19.622;2023-08-30T07:48:27;0.30;;;0.30;;
78296;SDS011;67555;47.660;19.622;2023-08-30T07:50:52;0.20;;;0.20;;
78296;SDS011;67555;47.660;19.622;2023-08-30T07:53:18;0.28;;;0.28;;
78296;SDS011;67555;47.660;19.622;2023-08-30T07:55:48;0.52;;;0.52;;
78296;SDS011;67555;47.660;19.622;2023-08-30T07:58:15;0.05;;;0.05;;
78296;SDS011;67555;47.660;19.622;2023-08-30T08:00:42;0.45;;;0.45;;
78296;SDS011;67555;47.660;19.622;2023-08-30T08:03:08;0.05;;;0.05;;
78296;SDS011;67555;47.660;19.622;2023-08-30T08:05:35;0.38;;;0.38;;
78296;SDS011;67555;47.660;19.622;2023-08-30T08:08:01;1.23;;;1.13;;
78296;SDS011;67555;47.660;19.622;2023-08-30T08:10:28;0.22;;;0.22;;
78296;SDS011;67555;47.660;19.622;2023-08-30T08:12:59;0.43;;;0.43;;
78296;SDS011;67555;47.660;19.622;2023-08-30T08:15:26;0.47;;;0.47;;
78296;SDS011;67555;47.660;19.622;2023-08-30T08:17:54;0.35;;;0.35;;
78296;SDS011;67555;47.660;19.622;2023-08-30T08:20:19;0.20;;;0.20;;
78296;SDS011;67555;47.660;19.622;2023-08-30T08:22:45;0.52;;;0.52;;
78296;SDS011;67555;47.660;19.622;2023-08-30T08:25:11;0.10;;;0.10;;
78296;SDS011;67555;47.660;19.622;2023-08-30T08:27:38;1.58;;;0.75;;
78296;SDS011;67555;47.660;19.622;2023-08-30T08:30:04;0.65;;;0.65;;
78296;SDS011;67555;47.660;19.622;2023-08-30T08:32:31;0.45;;;0.43;;
78296;SDS011;67555;47.660;19.622;2023-08-30T08:34:57;0.22;;;0.22;;
78296;SDS011;67555;47.660;19.622;2023-08-30T08:37:31;0.20;;;0.20;;
78296;SDS011;67555;47.660;19.622;2023-08-30T08:39:57;0.60;;;0.60;;
78296;SDS011;67555;47.660;19.622;2023-08-30T08:42:23;0.50;;;0.50;;
78296;SDS011;67555;47.660;19.622;2023-08-30T08:44:53;0.30;;;0.30;;
78296;SDS011;67555;47.660;19.622;2023-08-30T08:47:21;0.25;;;0.25;;
78296;SDS011;67555;47.660;19.622;2023-08-30T08:49:47;1.17;;;1.13;;
78296;SDS011;67555;47.660;19.622;2023-08-30T08:52:15;0.40;;;0.40;;
78296;SDS011;67555;47.660;19.622;2023-08-30T08:54:41;1.38;;;1.08;;
78296;SDS011;67555;47.660;19.622;2023-08-30T08:57:09;0.65;;;0.65;;
78296;SDS011;67555;47.660;19.622;2023-08-30T08:59:35;0.63;;;0.50;;
78296;SDS011;67555;47.660;19.622;2023-08-30T09:02:01;1.38;;;1.13;;
78296;SDS011;67555;47.660;19.622;2023-08-30T09:04:28;0.82;;;0.82;;
78296;SDS011;67555;47.660;19.622;2023-08-30T09:06:55;0.82;;;0.63;;
78296;SDS011;67555;47.660;19.622;2023-08-30T09:09:23;1.65;;;1.55;;
78296;SDS011;67555;47.660;19.622;2023-08-30T09:11:49;0.25;;;0.25;;
78296;SDS011;67555;47.660;19.622;2023-08-30T09:14:15;3.25;;;0.73;;
78296;SDS011;67555;47.660;19.622;2023-08-30T09:16:42;0.00;;;0.00;;
78296;SDS011;67555;47.660;19.622;2023-08-30T09:19:19;0.70;;;0.60;;
78296;SDS011;67555;47.660;19.622;2023-08-30T09:24:22;0.38;;;0.38;;
78296;SDS011;67555;47.660;19.622;2023-08-30T09:26:48;0.10;;;0.10;;
78296;SDS011;67555;47.660;19.622;2023-08-30T09:31:43;0.38;;;0.38;;
78296;SDS011;67555;47.660;19.622;2023-08-30T09:34:08;0.00;;;0.00;;
78296;SDS011;67555;47.660;19.622;2023-08-30T09:36:40;0.00;;;0.00;;
78296;SDS011;67555;47.660;19.622;2023-08-30T09:39:11;0.00;;;0.00;;
78296;SDS011;67555;47.660;19.622;2023-08-30T09:41:45;1.35;;;1.25;;
78296;SDS011;67555;47.660;19.622;2023-08-30T09:44:16;0.55;;;0.55;;
78296;SDS011;67555;47.660;19.622;2023-08-30T09:46:43;0.90;;;0.63;;
78296;SDS011;67555;47.660;19.622;2023-08-30T09:49:10;0.00;;;0.00;;
78296;SDS011;67555;47.660;19.622;2023-08-30T09:51:39;0.00;;;0.00;;
78296;SDS011;67555;47.660;19.622;2023-08-30T09:54:09;0.63;;;0.63;;
78296;SDS011;67555;47.660;19.622;2023-08-30T09:56:41;0.20;;;0.20;;
78296;SDS011;67555;47.660;19.622;2023-08-30T09:59:09;0.28;;;0.28;;
78296;SDS011;67555;47.660;19.622;2023-08-30T10:01:36;1.45;;;1.17;;
78296;SDS011;67555;47.660;19.622;2023-08-30T10:04:02;0.25;;;0.25;;
78296;SDS011;67555;47.660;19.622;2023-08-30T10:06:29;1.13;;;1.10;;
78296;SDS011;67555;47.660;19.622;2023-08-30T10:08:55;0.40;;;0.40;;
78296;SDS011;67555;47.660;19.622;2023-08-30T10:11:22;1.67;;;1.58;;
78296;SDS011;67555;47.660;19.622;2023-08-30T10:13:51;3.72;;;0.45;;
78296;SDS011;67555;47.660;19.622;2023-08-30T10:16:20;0.28;;;0.28;;
78296;SDS011;67555;47.660;19.622;2023-08-30T10:18:52;0.10;;;0.10;;
78296;SDS011;67555;47.660;19.622;2023-08-30T10:21:24;0.20;;;0.20;;
78296;SDS011;67555;47.660;19.622;2023-08-30T10:23:52;0.17;;;0.17;;
78296;SDS011;67555;47.660;19.622;2023-08-30T10:26:22;0.73;;;0.70;;
78296;SDS011;67555;47.660;19.622;2023-08-30T10:28:53;0.20;;;0.20;;
78296;SDS011;67555;47.660;19.622;2023-08-30T10:31:21;1.17;;;0.65;;
78296;SDS011;67555;47.660;19.622;2023-08-30T10:33:52;0.43;;;0.40;;
78296;SDS011;67555;47.660;19.622;2023-08-30T10:36:25;1.30;;;0.70;;
78296;SDS011;67555;47.660;19.622;2023-08-30T10:38:54;1.17;;;1.02;;
78296;SDS011;67555;47.660;19.622;2023-08-30T10:43:51;1.27;;;0.57;;
78296;SDS011;67555;47.660;19.622;2023-08-30T10:46:28;0.38;;;0.38;;
78296;SDS011;67555;47.660;19.622;2023-08-30T10:49:08;0.47;;;0.47;;
78296;SDS011;67555;47.660;19.622;2023-08-30T10:54:12;0.20;;;0.20;;
78296;SDS011;67555;47.660;19.622;2023-08-30T10:59:20;0.10;;;0.10;;
78296;SDS011;67555;47.660;19.622;2023-08-30T11:01:47;0.20;;;0.20;;
78296;SDS011;67555;47.660;19.622;2023-08-30T11:04:14;0.45;;;0.45;;
78296;SDS011;67555;47.660;19.622;2023-08-30T11:06:42;0.88;;;0.45;;
78296;SDS011;67555;47.660;19.622;2023-08-30T11:09:09;0.50;;;0.50;;
78296;SDS011;67555;47.660;19.622;2023-08-30T11:11:37;0.15;;;0.15;;
78296;SDS011;67555;47.660;19.622;2023-08-30T11:14:06;1.60;;;0.68;;
78296;SDS011;67555;47.660;19.622;2023-08-30T11:16:35;1.27;;;0.70;;
78296;SDS011;67555;47.660;19.622;2023-08-30T11:19:02;0.52;;;0.52;;
78296;SDS011;67555;47.660;19.622;2023-08-30T11:21:32;0.38;;;0.38;;
78296;SDS011;67555;47.660;19.622;2023-08-30T11:23:59;0.13;;;0.13;;
78296;SDS011;67555;47.660;19.622;2023-08-30T11:26:25;0.05;;;0.05;;
78296;SDS011;67555;47.660;19.622;2023-08-30T11:28:51;0.82;;;0.82;;
78296;SDS011;67555;47.660;19.622;2023-08-30T11:31:24;8.05;;;5.60;;
78296;SDS011;67555;47.660;19.622;2023-08-30T11:33:53;8.95;;;5.70;;
78296;SDS011;67555;47.660;19.622;2023-08-30T11:36:21;8.52;;;4.93;;
78296;SDS011;67555;47.660;19.622;2023-08-30T11:38:51;8.20;;;4.25;;
78296;SDS011;67555;47.660;19.622;2023-08-30T11:41:19;9.75;;;4.55;;
78296;SDS011;67555;47.660;19.622;2023-08-30T11:43:46;6.90;;;4.75;;
78296;SDS011;67555;47.660;19.622;2023-08-30T11:46:13;8.57;;;5.40;;
78296;SDS011;67555;47.660;19.622;2023-08-30T11:48:39;10.02;;;5.03;;
78296;SDS011;67555;47.660;19.622;2023-08-30T11:51:06;8.48;;;4.95;;
78296;SDS011;67555;47.660;19.622;2023-08-30T11:53:34;8.95;;;5.53;;
78296;SDS011;67555;47.660;19.622;2023-08-30T11:56:00;9.02;;;5.30;;
78296;SDS011;67555;47.660;19.622;2023-08-30T11:58:26;8.27;;;5.18;;
78296;SDS011;67555;47.660;19.622;2023-08-30T12:00:53;5.95;;;4.43;;
78296;SDS011;67555;47.660;19.622;2023-08-30T12:03:22;8.88;;;4.55;;
78296;SDS011;67555;47.660;19.622;2023-08-30T12:05:48;8.20;;;4.88;;
78296;SDS011;67555;47.660;19.622;2023-08-30T12:08:21;6.82;;;4.43;;
78296;SDS011;67555;47.660;19.622;2023-08-30T12:10:49;6.57;;;4.63;;
78296;SDS011;67555;47.660;19.622;2023-08-30T12:15:47;8.27;;;5.25;;
78296;SDS011;67555;47.660;19.622;2023-08-30T12:18:14;7.82;;;5.18;;
78296;SDS011;67555;47.660;19.622;2023-08-30T12:20:40;6.53;;;4.07;;
78296;SDS011;67555;47.660;19.622;2023-08-30T12:23:20;9.13;;;5.13;;
78296;SDS011;67555;47.660;19.622;2023-08-30T12:28:45;6.32;;;4.18;;
78296;SDS011;67555;47.660;19.622;2023-08-30T12:31:11;6.88;;;4.63;;
78296;SDS011;67555;47.660;19.622;2023-08-30T12:33:37;5.80;;;4.18;;
78296;SDS011;67555;47.660;19.622;2023-08-30T12:36:04;9.65;;;4.82;;
78296;SDS011;67555;47.660;19.622;2023-08-30T12:38:30;7.88;;;4.65;;
78296;SDS011;67555;47.660;19.622;2023-08-30T12:40:56;7.80;;;5.05;;
78296;SDS011;67555;47.660;19.622;2023-08-30T12:43:22;7.30;;;4.95;;
78296;SDS011;67555;47.660;19.622;2023-08-30T12:45:49;9.90;;;5.10;;
78296;SDS011;67555;47.660;19.622;2023-08-30T12:48:16;6.35;;;4.38;;
78296;SDS011;67555;47.660;19.622;2023-08-30T12:50:43;11.27;;;4.60;;
78296;SDS011;67555;47.660;19.622;2023-08-30T12:53:10;6.63;;;4.43;;
78296;SDS011;67555;47.660;19.622;2023-08-30T12:55:36;6.38;;;4.60;;
78296;SDS011;67555;47.660;19.622;2023-08-30T12:58:05;6.35;;;4.25;;
78296;SDS011;67555;47.660;19.622;2023-08-30T13:00:32;7.72;;;4.55;;
78296;SDS011;67555;47.660;19.622;2023-08-30T13:02:58;8.30;;;4.32;;
78296;SDS011;67555;47.660;19.622;2023-08-30T13:05:25;7.50;;;4.30;;
78296;SDS011;67555;47.660;19.622;2023-08-30T13:07:51;8.70;;;4.68;;
78296;SDS011;67555;47.660;19.622;2023-08-30T13:10:17;8.52;;;5.15;;
78296;SDS011;67555;47.660;19.622;2023-08-30T13:12:43;9.70;;;4.32;;
78296;SDS011;67555;47.660;19.622;2023-08-30T13:15:09;7.88;;;4.70;;
78296;SDS011;67555;47.660;19.622;2023-08-30T13:17:36;9.27;;;5.03;;
78296;SDS011;67555;47.660;19.622;2023-08-30T13:20:02;6.45;;;3.97;;
78296;SDS011;67555;47.660;19.622;2023-08-30T13:22:28;6.13;;;3.45;;
78296;SDS011;67555;47.660;19.622;2023-08-30T13:24:54;6.78;;;4.60;;
78296;SDS011;67555;47.660;19.622;2023-08-30T13:27:20;6.30;;;4.10;;
78296;SDS011;67555;47.660;19.622;2023-08-30T13:29:46;8.05;;;4.90;;
78296;SDS011;67555;47.660;19.622;2023-08-30T13:32:13;8.07;;;4.40;;
78296;SDS011;67555;47.660;19.622;2023-08-30T13:34:39;10.80;;;5.05;;
78296;SDS011;67555;47.660;19.622;2023-08-30T13:37:05;6.68;;;4.43;;
78296;SDS011;67555;47.660;19.622;2023-08-30T13:39:31;6.22;;;4.28;;
78296;SDS011;67555;47.660;19.622;2023-08-30T13:42:16;6.57;;;4.45;;
78296;SDS011;67555;47.660;19.622;2023-08-30T13:44:42;8.05;;;4.82;;
78296;SDS011;67555;47.660;19.622;2023-08-30T13:47:09;6.70;;;4.65;;
78296;SDS011;67555;47.660;19.622;2023-08-30T13:49:35;7.32;;;4.32;;
78296;SDS011;67555;47.660;19.622;2023-08-30T13:52:01;5.45;;;4.00;;
78296;SDS011;67555;47.660;19.622;2023-08-30T13:54:28;6.80;;;3.78;;
78296;SDS011;67555;47.660;19.622;2023-08-30T13:56:56;11.98;;;4.53;;
78296;SDS011;67555;47.660;19.622;2023-08-30T13:59:23;7.72;;;4.38;;
78296;SDS011;67555;47.660;19.622;2023-08-30T14:01:49;9.77;;;5.38;;
78296;SDS011;67555;47.660;19.622;2023-08-30T14:04:15;8.18;;;4.57;;
78296;SDS011;67555;47.660;19.622;2023-08-30T14:06:41;5.88;;;3.55;;
78296;SDS011;67555;47.660;19.622;2023-08-30T14:09:07;6.47;;;4.22;;
78296;SDS011;67555;47.660;19.622;2023-08-30T14:11:34;5.70;;;3.58;;
78296;SDS011;67555;47.660;19.622;2023-08-30T14:14:03;5.13;;;3.30;;
78296;SDS011;67555;47.660;19.622;2023-08-30T14:16:29;5.20;;;2.80;;
78296;SDS011;67555;47.660;19.622;2023-08-30T14:18:55;4.55;;;2.92;;
78296;SDS011;67555;47.660;19.622;2023-08-30T14:21:41;4.60;;;2.80;;
78296;SDS011;67555;47.660;19.622;2023-08-30T14:24:07;4.57;;;2.50;;
78296;SDS011;67555;47.660;19.622;2023-08-30T14:26:32;7.97;;;3.58;;
78296;SDS011;67555;47.660;19.622;2023-08-30T14:28:58;3.85;;;2.78;;
78296;SDS011;67555;47.660;19.622;2023-08-30T14:31:24;6.75;;;3.10;;
78296;SDS011;67555;47.660;19.622;2023-08-30T14:33:53;4.35;;;2.97;;
78296;SDS011;67555;47.660;19.622;2023-08-30T14:36:24;4.20;;;2.95;;
78296;SDS011;67555;47.660;19.622;2023-08-30T14:38:50;3.80;;;2.60;;
78296;SDS011;67555;47.660;19.622;2023-08-30T14:41:17;5.38;;;2.83;;
78296;SDS011;67555;47.660;19.622;2023-08-30T14:43:43;3.80;;;2.58;;
78296;SDS011;67555;47.660;19.622;2023-08-30T14:46:10;5.28;;;2.72;;
78296;SDS011;67555;47.660;19.622;2023-08-30T14:48:35;4.55;;;2.83;;
78296;SDS011;67555;47.660;19.622;2023-08-30T14:51:04;5.20;;;3.17;;
78296;SDS011;67555;47.660;19.622;2023-08-30T14:53:31;4.05;;;2.85;;
78296;SDS011;67555;47.660;19.622;2023-08-30T14:55:57;2.60;;;1.85;;
78296;SDS011;67555;47.660;19.622;2023-08-30T14:58:23;4.78;;;2.90;;
78296;SDS011;67555;47.660;19.622;2023-08-30T15:00:49;6.20;;;3.00;;
78296;SDS011;67555;47.660;19.622;2023-08-30T15:03:15;3.95;;;2.45;;
78296;SDS011;67555;47.660;19.622;2023-08-30T15:05:41;5.88;;;3.53;;